Time;durP1;ratioP1;P1;durP2;ratioP2;P2;SDS_P1;SDS_P2;PMS_P1;PMS_P2;Temp;Humidity;BMP_temperature;BMP_pressure;BME280_temperature;BME280_humidity;BME280_pressure;Samples;Min_cycle;Max_cycle;Signal;HPM_P1;HPM_P2
2023/07/02 00:01:49;;;;;;;;;32.67;30.33;;;;;19.37;51.93;100994.25;5061395;27;46133;-46
2023/07/02 00:04:16;;;;;;;;;31.33;27.33;;;;;19.33;51.94;100992.81;5071476;27;46192;-48
2023/07/02 00:06:43;;;;;;;;;38.00;30.67;;;;;19.28;51.75;101000.44;5058835;27;47277;-48
2023/07/02 00:09:10;;;;;;;;;41.67;32.67;;;;;19.21;52.15;100999.25;5087979;27;45433;-47
2023/07/02 00:11:37;;;;;;;;;31.33;29.00;;;;;19.13;52.48;101002.59;5058727;27;45987;-45
2023/07/02 00:14:02;;;;;;;;;40.67;31.00;;;;;19.05;52.50;101002.38;5058581;27;46755;-50
2023/07/02 00:16:28;;;;;;;;;43.00;34.00;;;;;18.99;52.86;100996.50;5061568;27;61002;-47
2023/07/02 00:18:53;;;;;;;;;35.00;28.33;;;;;18.94;53.04;100993.34;5050926;28;69524;-48
2023/07/02 00:21:20;;;;;;;;;40.67;33.00;;;;;18.90;52.71;100991.84;5070755;27;46048;-48
2023/07/02 00:23:46;;;;;;;;;37.00;29.33;;;;;18.85;53.16;100991.34;5077165;27;45909;-47
2023/07/02 00:26:11;;;;;;;;;37.67;33.00;;;;;18.82;53.54;100994.28;5065151;28;46919;-47
2023/07/02 00:28:36;;;;;;;;;42.33;33.33;;;;;18.80;53.35;100996.28;5071082;27;67692;-49
2023/07/02 00:31:02;;;;;;;;;35.00;30.67;;;;;18.79;53.34;100986.47;5072853;27;63621;-47
2023/07/02 00:33:28;;;;;;;;;41.00;30.67;;;;;18.74;53.94;100991.38;5063581;27;45444;-47
2023/07/02 00:35:54;;;;;;;;;28.00;26.33;;;;;18.69;53.75;100994.44;5087564;27;46890;-48
2023/07/02 00:38:19;;;;;;;;;37.67;31.33;;;;;18.66;53.87;100984.75;5072053;27;45457;-47
2023/07/02 00:40:45;;;;;;;;;41.00;30.67;;;;;18.63;54.01;100993.09;5075076;28;45483;-48
2023/07/02 00:43:12;;;;;;;;;41.33;26.67;;;;;18.59;53.70;100988.97;5062920;27;67694;-47
2023/07/02 00:45:39;;;;;;;;;39.67;32.33;;;;;18.55;54.21;100990.19;5060578;27;47784;-48
2023/07/02 00:48:08;;;;;;;;;41.33;31.67;;;;;18.52;54.36;100990.41;5075246;27;45391;-47
2023/07/02 00:50:33;;;;;;;;;38.00;30.33;;;;;18.46;54.92;100986.41;5055626;27;45610;-48
2023/07/02 00:52:58;;;;;;;;;43.67;32.33;;;;;18.42;54.67;100984.06;5081162;27;55344;-49
2023/07/02 00:55:24;;;;;;;;;32.67;29.33;;;;;18.39;54.75;100987.00;5077129;27;46146;-49
2023/07/02 00:57:50;;;;;;;;;36.67;32.33;;;;;18.35;55.11;100987.25;5076899;27;46260;-47
2023/07/02 01:00:15;;;;;;;;;40.00;31.00;;;;;18.31;55.05;100984.94;5058967;27;50031;-49
2023/07/02 01:02:43;;;;;;;;;37.67;30.33;;;;;18.27;55.61;100994.22;5061434;27;46233;-48
2023/07/02 01:05:21;;;;;;;;;38.00;31.33;;;;;18.21;55.28;100990.16;5054450;27;46829;-50
2023/07/02 01:07:46;;;;;;;;;33.00;25.67;;;;;18.15;55.42;101004.13;5055921;27;45772;-47
2023/07/02 01:10:12;;;;;;;;;36.67;32.67;;;;;18.12;55.89;100996.28;5069113;27;45652;-50
2023/07/02 01:12:38;;;;;;;;;37.00;30.00;;;;;18.09;55.83;101008.16;5056614;27;66058;-49
2023/07/02 01:15:05;;;;;;;;;31.00;27.67;;;;;18.02;56.10;101004.25;5073346;27;45645;-48
2023/07/02 01:17:41;;;;;;;;;33.67;29.00;;;;;17.96;56.63;101008.25;5064927;27;45571;-50
2023/07/02 01:20:08;;;;;;;;;37.67;30.00;;;;;17.93;57.16;101007.66;5078029;27;45716;-50
2023/07/02 01:22:34;;;;;;;;;31.00;28.00;;;;;17.88;57.11;101012.50;5068191;27;47345;-49
2023/07/02 01:25:00;;;;;;;;;33.67;32.00;;;;;17.85;57.27;101006.38;5071926;27;46331;-47
2023/07/02 01:27:29;;;;;;;;;35.67;30.00;;;;;17.82;57.56;100995.00;5054491;28;67014;-47
2023/07/02 01:29:54;;;;;;;;;29.67;29.00;;;;;17.79;57.29;100998.78;5060273;27;45676;-46
2023/07/02 01:32:20;;;;;;;;;40.00;31.67;;;;;17.77;57.54;101014.19;5061354;27;45499;-47
2023/07/02 01:34:48;;;;;;;;;39.67;33.00;;;;;17.75;58.04;101018.81;5066168;27;46339;-48
2023/07/02 01:37:14;;;;;;;;;28.00;27.67;;;;;17.72;57.93;101024.44;5057553;27;45724;-47
2023/07/02 01:39:40;;;;;;;;;34.00;30.33;;;;;17.67;57.89;101018.56;5054842;27;45603;-46
2023/07/02 01:42:14;;;;;;;;;28.67;22.33;;;;;17.64;57.50;101014.28;5054711;27;45465;-48
2023/07/02 01:44:39;;;;;;;;;42.00;30.67;;;;;17.61;58.00;101013.66;5053973;27;46955;-47
2023/07/02 01:47:05;;;;;;;;;37.33;30.33;;;;;17.57;58.44;101015.69;5059509;27;45658;-47
2023/07/02 01:49:30;;;;;;;;;42.00;31.33;;;;;17.56;58.41;101015.81;5051864;27;45541;-47
2023/07/02 01:51:56;;;;;;;;;46.00;34.00;;;;;17.54;59.07;101018.63;5063185;27;46159;-48
2023/07/02 01:54:26;;;;;;;;;42.67;34.33;;;;;17.53;58.96;101022.28;5053980;27;52047;-47
2023/07/02 01:56:52;;;;;;;;;39.67;32.33;;;;;17.52;59.08;101016.06;5060814;27;46123;-47
2023/07/02 01:59:17;;;;;;;;;51.33;36.67;;;;;17.49;58.55;101013.59;5055649;27;45549;-47
2023/07/02 02:01:43;;;;;;;;;43.00;34.67;;;;;17.45;58.63;101022.03;5068174;27;66320;-47
2023/07/02 02:04:09;;;;;;;;;39.00;34.33;;;;;17.40;59.39;101016.97;5055057;27;74760;-47
2023/07/02 02:06:35;;;;;;;;;43.67;33.00;;;;;17.39;59.86;101020.66;5058628;27;46109;-48
2023/07/02 02:09:00;;;;;;;;;38.00;32.67;;;;;17.41;59.93;101020.56;5059444;27;45488;-49
2023/07/02 02:11:26;;;;;;;;;42.67;31.33;;;;;17.43;60.14;101019.47;5061495;27;46035;-47
2023/07/02 02:13:51;;;;;;;;;38.00;30.00;;;;;17.45;59.42;101014.81;5068164;27;63406;-46
2023/07/02 03:27:05;;;;;;;;;36.67;29.67;;;;;15.84;66.49;101042.41;5051212;28;45534;-41
2023/07/02 03:29:31;;;;;;;;;32.67;26.67;;;;;15.91;66.67;101042.84;5030731;28;45297;-41
2023/07/02 03:31:57;;;;;;;;;35.33;27.00;;;;;15.99;66.42;101043.16;5032642;28;45459;-41
2023/07/02 03:34:23;;;;;;;;;30.67;24.00;;;;;16.05;66.78;101044.56;5034616;28;45992;-41
2023/07/02 03:36:49;;;;;;;;;35.67;27.00;;;;;16.10;66.47;101053.16;5035284;28;45635;-41
2023/07/02 03:39:15;;;;;;;;;27.67;23.33;;;;;16.16;66.91;101055.41;5039951;28;45667;-45
2023/07/02 03:41:40;;;;;;;;;30.67;28.00;;;;;16.21;66.99;101061.31;5027274;28;45756;-41
2023/07/02 03:44:06;;;;;;;;;32.67;26.00;;;;;16.26;66.58;101066.38;5034892;28;64091;-41
2023/07/02 03:46:31;;;;;;;;;31.00;24.50;;;;;16.27;66.97;101068.09;5034355;28;46578;-41
2023/07/02 03:48:57;;;;;;;;;26.00;21.67;;;;;16.31;66.70;101066.91;5040084;28;47284;-41
2023/07/02 03:51:22;;;;;;;;;34.33;31.33;;;;;16.34;66.90;101072.03;5034274;28;45320;-41
2023/07/02 03:53:47;;;;;;;;;29.00;22.67;;;;;16.36;65.94;101070.13;5036201;28;45651;-41
2023/07/02 03:56:13;;;;;;;;;27.67;23.67;;;;;16.38;66.33;101076.22;5034587;28;46308;-41
2023/07/02 03:58:40;;;;;;;;;33.67;25.33;;;;;16.39;66.36;101077.09;5029739;28;63336;-40
2023/07/02 04:01:05;;;;;;;;;33.33;27.00;;;;;16.40;66.33;101077.94;5023958;28;45771;-42
2023/07/02 04:03:30;;;;;;;;;32.00;26.67;;;;;16.43;66.20;101080.44;5037651;28;45417;-41
2023/07/02 04:05:56;;;;;;;;;28.00;21.00;;;;;16.43;66.22;101077.75;5048652;28;74755;-41
2023/07/02 04:08:22;;;;;;;;;28.67;22.33;;;;;16.46;66.28;101078.38;5034248;28;45679;-41
2023/07/02 04:10:47;;;;;;;;;33.33;26.67;;;;;16.50;66.03;101079.03;5037632;28;45670;-41
2023/07/02 04:13:13;;;;;;;;;34.00;21.67;;;;;16.52;66.17;101075.25;5040542;28;45544;-41
2023/07/02 04:15:38;;;;;;;;;34.00;24.33;;;;;16.55;66.39;101076.88;5033096;28;65380;-42
2023/07/02 04:18:03;;;;;;;;;29.33;22.67;;;;;16.58;66.06;101073.97;5044761;28;45309;-41
2023/07/02 04:20:29;;;;;;;;;36.00;27.67;;;;;16.60;65.79;101079.25;5029320;28;59383;-41
2023/07/02 04:22:54;;;;;;;;;26.33;25.67;;;;;16.61;65.50;101070.19;5029483;28;45406;-41
2023/07/02 04:25:20;;;;;;;;;35.67;23.33;;;;;16.63;65.71;101081.69;5037083;28;47590;-41
2023/07/02 04:27:45;;;;;;;;;26.33;20.00;;;;;16.63;65.92;101087.91;5022116;28;45324;-41
2023/07/02 04:30:11;;;;;;;;;38.00;26.67;;;;;16.67;66.70;101086.75;5017818;28;52504;-41
2023/07/02 04:32:41;;;;;;;;;27.67;23.33;;;;;16.74;66.37;101097.03;5019681;28;45439;-41
2023/07/02 04:35:09;;;;;;;;;26.67;22.67;;;;;16.83;66.04;101093.69;5020725;28;45795;-41
2023/07/02 04:37:35;;;;;;;;;35.33;24.00;;;;;16.91;66.05;101091.38;5029553;28;45533;-42
2023/07/02 04:40:03;;;;;;;;;24.67;23.00;;;;;16.98;65.79;101095.31;5018318;28;46946;-41
2023/07/02 04:42:31;;;;;;;;;34.00;24.00;;;;;17.01;65.44;101097.78;5008049;28;45491;-41
2023/07/02 04:45:01;;;;;;;;;26.00;24.00;;;;;17.03;65.33;101092.31;5028524;28;46027;-41
2023/07/02 04:47:27;;;;;;;;;23.00;22.00;;;;;16.98;65.32;101100.69;5016421;28;45498;-41
2023/07/02 04:49:52;;;;;;;;;24.67;24.67;;;;;16.96;65.22;101099.06;5020894;28;48275;-42
2023/07/02 04:52:17;;;;;;;;;28.00;23.33;;;;;16.95;65.63;101097.38;5021232;28;66142;-41
2023/07/02 04:54:43;;;;;;;;;31.00;24.67;;;;;16.95;65.92;101098.22;5023281;28;48082;-41
2023/07/02 04:57:08;;;;;;;;;30.67;24.00;;;;;16.99;65.67;101093.50;5018234;28;70943;-41
2023/07/02 04:59:33;;;;;;;;;22.67;21.67;;;;;17.05;65.74;101101.09;5019215;28;45528;-41
2023/07/02 05:01:59;;;;;;;;;29.67;24.33;;;;;17.13;65.58;101101.41;5027281;28;67575;-41
2023/07/02 05:04:24;;;;;;;;;29.67;23.67;;;;;17.27;65.24;101100.38;5018144;28;73696;-41
2023/07/02 05:06:49;;;;;;;;;23.67;22.00;;;;;17.47;64.88;101095.34;5018904;28;70640;-41
2023/07/02 05:09:15;;;;;;;;;25.00;20.00;;;;;17.67;64.64;101099.25;5017010;28;66823;-41
2023/07/02 05:11:40;;;;;;;;;26.00;22.00;;;;;17.83;64.23;101090.88;5013729;28;46295;-42
2023/07/02 05:14:05;;;;;;;;;30.00;20.67;;;;;17.99;63.93;101096.84;5022633;28;45933;-42
2023/07/02 05:16:31;;;;;;;;;22.33;20.67;;;;;18.13;63.80;101093.09;5017167;28;62271;-41
2023/07/02 05:18:56;;;;;;;;;29.33;22.00;;;;;18.22;63.30;101098.72;5020540;28;45435;-42
2023/07/02 05:21:22;;;;;;;;;27.33;20.33;;;;;18.23;62.68;101101.28;5017723;28;70336;-41
2023/07/02 05:23:47;;;;;;;;;22.33;17.67;;;;;18.19;62.76;101095.28;5019824;28;46216;-42
2023/07/02 05:26:13;;;;;;;;;26.00;20.67;;;;;18.18;62.83;101101.63;5018542;28;45552;-41
2023/07/02 05:28:38;;;;;;;;;28.33;24.33;;;;;18.25;62.81;101103.88;5023519;28;67966;-41
2023/07/02 05:31:03;;;;;;;;;25.67;20.67;;;;;18.29;62.17;101100.81;5024376;28;70506;-41
2023/07/02 05:33:31;;;;;;;;;28.00;24.67;;;;;18.31;62.26;101100.69;5018982;28;74099;-41
2023/07/02 05:35:56;;;;;;;;;24.00;21.33;;;;;18.32;61.83;101103.25;5021785;28;45431;-42
2023/07/02 05:38:21;;;;;;;;;20.33;17.67;;;;;18.37;62.28;101105.63;5019087;28;45385;-41
2023/07/02 05:40:47;;;;;;;;;31.67;23.33;;;;;18.47;62.43;101100.34;5021071;28;63855;-42
2023/07/02 05:43:12;;;;;;;;;28.00;24.00;;;;;18.56;61.45;101113.09;5017248;28;66850;-42
2023/07/02 05:45:37;;;;;;;;;24.33;20.00;;;;;18.64;61.72;101112.47;5020686;28;45558;-42
2023/07/02 05:48:03;;;;;;;;;27.00;19.33;;;;;18.68;61.44;101116.63;5019295;28;63023;-41
2023/07/02 05:50:28;;;;;;;;;26.00;23.00;;;;;18.73;61.44;101114.44;5021155;28;45753;-41
2023/07/02 05:52:53;;;;;;;;;27.67;22.67;;;;;18.75;61.27;101125.13;5007868;28;73293;-41
2023/07/02 05:55:19;;;;;;;;;26.00;16.67;;;;;18.76;60.62;101121.41;5016674;28;73289;-42
2023/07/02 05:57:45;;;;;;;;;25.67;23.33;;;;;18.78;60.63;101127.56;5019412;28;45446;-41
2023/07/02 06:00:11;;;;;;;;;32.00;24.00;;;;;18.82;60.54;101126.31;5017231;28;45455;-41
2023/07/02 06:02:37;;;;;;;;;30.67;21.33;;;;;18.84;60.63;101119.84;5029838;28;46140;-41
2023/07/02 06:05:02;;;;;;;;;30.00;25.00;;;;;18.92;60.63;101123.81;5016987;28;70622;-42
2023/07/02 06:07:28;;;;;;;;;20.33;20.33;;;;;18.94;60.37;101125.38;5017225;28;45383;-42
2023/07/02 06:09:53;;;;;;;;;23.33;22.00;;;;;18.99;60.26;101127.69;5019034;28;45265;-41
2023/07/02 06:12:21;;;;;;;;;33.33;23.33;;;;;19.07;60.34;101127.94;5026591;28;71974;-41
2023/07/02 06:14:46;;;;;;;;;24.67;21.00;;;;;19.13;60.39;101127.44;5015089;28;45959;-42
2023/07/02 06:17:11;;;;;;;;;27.67;22.67;;;;;19.22;59.97;101130.38;5016859;28;46857;-42
2023/07/02 06:19:37;;;;;;;;;24.00;19.00;;;;;19.31;60.04;101135.03;5015228;28;51933;-41
2023/07/02 06:22:03;;;;;;;;;30.00;22.00;;;;;19.44;59.65;101138.41;5018532;28;46145;-41
2023/07/02 06:24:28;;;;;;;;;26.67;23.67;;;;;19.60;59.58;101140.69;5026090;28;45804;-41
2023/07/02 06:26:53;;;;;;;;;29.67;25.00;;;;;19.73;58.68;101139.69;5015413;28;65100;-41
2023/07/02 06:29:18;;;;;;;;;22.67;21.00;;;;;19.79;58.63;101145.44;5019280;28;54281;-41
2023/07/02 06:31:44;;;;;;;;;26.67;23.67;;;;;19.79;58.54;101145.44;5017553;28;75045;-42
2023/07/02 06:34:09;;;;;;;;;26.33;23.67;;;;;19.80;57.96;101151.66;5013025;28;45535;-44
2023/07/02 06:36:35;;;;;;;;;29.67;21.33;;;;;19.82;58.29;101150.59;5006803;28;45426;-43
2023/07/02 06:39:00;;;;;;;;;24.33;20.67;;;;;19.89;58.02;101153.63;5018051;28;45403;-41
2023/07/02 06:41:26;;;;;;;;;26.33;21.67;;;;;20.07;58.05;101162.00;5018496;28;46249;-41
2023/07/02 06:43:51;;;;;;;;;36.67;25.67;;;;;20.48;57.77;101162.16;5023719;28;45300;-41
2023/07/02 06:46:17;;;;;;;;;22.67;16.67;;;;;20.64;57.02;101161.69;5011106;28;61041;-41
2023/07/02 06:48:42;;;;;;;;;25.67;22.00;;;;;22.56;57.31;101161.50;5016668;28;45368;-41
2023/07/02 06:51:08;;;;;;;;;28.33;23.67;;;;;25.12;52.23;101160.47;5012680;28;70797;-41
2023/07/02 06:53:34;;;;;;;;;15.33;15.00;;;;;26.25;49.12;101160.88;5018546;28;45444;-42
2023/07/02 06:55:59;;;;;;;;;27.67;22.33;;;;;26.23;46.65;101162.94;5017725;28;45515;-42
2023/07/02 06:58:25;;;;;;;;;31.00;25.00;;;;;25.81;46.05;101163.06;5009353;28;45474;-41
2023/07/02 07:00:50;;;;;;;;;25.00;23.00;;;;;25.24;46.35;101165.44;5022551;28;46123;-42
2023/07/02 07:03:16;;;;;;;;;23.00;19.33;;;;;25.12;46.26;101165.91;5019928;28;45305;-42
2023/07/02 07:05:41;;;;;;;;;25.00;18.67;;;;;25.14;47.18;101169.31;5023859;28;58380;-42
2023/07/02 07:08:07;;;;;;;;;27.00;23.00;;;;;25.19;45.95;101167.81;5023217;28;50791;-41
2023/07/02 07:10:34;;;;;;;;;23.33;19.33;;;;;25.15;45.99;101169.16;5021705;28;50525;-41
2023/07/02 07:13:01;;;;;;;;;30.00;21.00;;;;;25.29;47.41;101161.38;5017645;28;45795;-42
2023/07/02 07:15:26;;;;;;;;;25.00;21.00;;;;;26.12;46.10;101174.19;5020280;28;45370;-42
2023/07/02 07:17:52;;;;;;;;;20.33;20.33;;;;;27.34;43.54;101162.28;5015916;28;67249;-42
2023/07/02 07:20:17;;;;;;;;;20.33;19.67;;;;;29.37;43.18;101158.09;5016259;28;46812;-42
2023/07/02 07:22:42;;;;;;;;;27.67;24.00;;;;;31.70;39.97;101157.28;5013458;28;65909;-42
2023/07/02 07:25:08;;;;;;;;;22.00;20.67;;;;;33.95;37.11;101163.56;5017891;28;61142;-43
2023/07/02 07:27:34;;;;;;;;;27.33;21.00;;;;;35.28;33.90;101170.75;5015173;28;45665;-42
2023/07/02 07:29:59;;;;;;;;;23.33;19.67;;;;;34.46;32.20;101175.47;5016304;28;72412;-42
2023/07/02 07:32:24;;;;;;;;;23.33;21.00;;;;;33.46;33.82;101167.88;5022006;28;70726;-41
2023/07/02 07:34:50;;;;;;;;;25.33;22.33;;;;;32.78;34.78;101172.78;5032357;28;64880;-41
2023/07/02 07:37:16;;;;;;;;;28.33;20.33;;;;;32.27;33.48;101173.47;5021503;28;45261;-42
2023/07/02 07:39:41;;;;;;;;;19.67;18.67;;;;;32.34;34.54;101171.53;5018860;28;63281;-43
2023/07/02 07:42:06;;;;;;;;;25.67;20.67;;;;;32.68;33.09;101166.84;5014440;28;73478;-42
2023/07/02 07:44:32;;;;;;;;;31.33;24.00;;;;;32.42;32.63;101175.97;5017480;28;57197;-42
2023/07/02 07:46:57;;;;;;;;;30.67;23.67;;;;;32.23;32.89;101169.41;5017287;28;57667;-43
2023/07/02 07:49:22;;;;;;;;;16.67;16.33;;;;;33.26;31.84;101177.09;5015116;28;74220;-42
2023/07/02 07:51:48;;;;;;;;;27.67;24.33;;;;;32.98;31.12;101169.13;5017598;28;45591;-42
2023/07/02 07:54:14;;;;;;;;;30.33;25.00;;;;;32.11;32.24;101182.94;5018086;28;45391;-41
2023/07/02 07:56:39;;;;;;;;;21.33;18.67;;;;;31.27;33.64;101185.88;5017694;28;55176;-42
2023/07/02 07:59:04;;;;;;;;;20.00;19.00;;;;;30.99;33.45;101195.03;5018899;28;75374;-42
2023/07/02 08:01:30;;;;;;;;;22.67;20.33;;;;;30.72;33.33;101191.25;5014446;28;66054;-42
2023/07/02 08:03:56;;;;;;;;;21.67;20.33;;;;;30.67;33.93;101185.53;5017760;28;45577;-42
2023/07/02 08:06:21;;;;;;;;;24.67;22.33;;;;;30.39;34.24;101191.84;5021365;28;45332;-43
2023/07/02 08:08:46;;;;;;;;;22.33;21.33;;;;;30.28;33.59;101186.91;5020335;28;56435;-43
2023/07/02 08:11:12;;;;;;;;;24.00;20.00;;;;;31.49;33.03;101191.25;5016499;28;71592;-42
2023/07/02 08:13:37;;;;;;;;;23.00;20.67;;;;;32.63;32.96;101184.00;5018791;28;45761;-43
2023/07/02 08:16:03;;;;;;;;;22.00;18.33;;;;;33.03;31.04;101188.59;5019068;28;51446;-42
2023/07/02 08:18:28;;;;;;;;;27.00;21.33;;;;;33.03;30.47;101185.00;5026390;28;45537;-42
2023/07/02 08:20:53;;;;;;;;;23.67;19.67;;;;;33.14;30.70;101189.81;5019988;28;66412;-42
2023/07/02 08:23:19;;;;;;;;;18.33;15.33;;;;;33.13;29.73;101188.97;5018679;28;64035;-43
2023/07/02 08:25:44;;;;;;;;;24.67;20.67;;;;;32.78;30.99;101197.56;5018047;28;68826;-42
2023/07/02 08:28:09;;;;;;;;;27.67;19.67;;;;;32.33;30.67;101197.34;5018465;28;75118;-43
2023/07/02 08:30:35;;;;;;;;;25.67;19.00;;;;;32.90;30.76;101196.91;5017160;28;71144;-43
2023/07/02 08:33:00;;;;;;;;;20.33;19.33;;;;;34.22;29.76;101196.44;5015896;28;63571;-41
2023/07/02 08:35:25;;;;;;;;;22.00;20.67;;;;;34.70;28.70;101202.44;5017856;28;46928;-46
2023/07/02 08:37:51;;;;;;;;;23.00;19.00;;;;;34.90;27.36;101200.34;5018845;28;46309;-43
2023/07/02 08:40:17;;;;;;;;;26.00;23.00;;;;;34.92;27.45;101200.09;5004932;28;45553;-42
2023/07/02 08:42:44;;;;;;;;;22.67;19.33;;;;;34.79;27.11;101207.41;5017514;28;45489;-43
2023/07/02 08:45:10;;;;;;;;;28.33;21.33;;;;;34.49;27.92;101203.69;5019546;28;45443;-42
2023/07/02 08:47:35;;;;;;;;;25.67;22.33;;;;;34.47;28.06;101206.66;5018529;28;45430;-42
2023/07/02 08:50:03;;;;;;;;;21.00;18.67;;;;;34.19;28.02;101212.63;5017812;28;45541;-46
2023/07/02 08:52:28;;;;;;;;;20.33;18.33;;;;;34.10;27.98;101204.59;5018128;28;45374;-43
2023/07/02 08:54:53;;;;;;;;;22.67;22.33;;;;;34.08;27.34;101201.25;5018863;28;45359;-43
2023/07/02 08:57:21;;;;;;;;;21.00;20.00;;;;;33.10;27.70;101205.97;5019461;28;46516;-44
2023/07/02 08:59:47;;;;;;;;;19.33;17.67;;;;;32.32;28.88;101196.53;5022021;28;45588;-43
2023/07/02 09:02:12;;;;;;;;;26.67;22.67;;;;;34.44;27.94;101196.91;5016649;28;45395;-47
2023/07/02 09:04:38;;;;;;;;;24.67;20.33;;;;;36.47;26.03;101196.06;5014320;28;58915;-42
2023/07/02 09:07:04;;;;;;;;;30.00;24.67;;;;;36.99;24.28;101181.41;5017505;28;46015;-42
2023/07/02 09:09:30;;;;;;;;;21.33;19.00;;;;;35.83;24.93;101194.69;5008588;28;45316;-41
2023/07/02 09:11:55;;;;;;;;;20.33;18.33;;;;;34.45;25.24;101190.34;5019473;28;45482;-41
2023/07/02 09:14:26;;;;;;;;;19.67;16.33;;;;;33.04;26.81;101183.94;5020339;28;45377;-43
2023/07/02 09:17:08;;;;;;;;;20.33;19.67;;;;;31.66;28.13;101189.00;5016727;28;46044;-44
2023/07/02 09:19:34;;;;;;;;;27.67;22.00;;;;;30.46;29.29;101192.75;5019001;28;45468;-43
2023/07/02 09:22:00;;;;;;;;;21.00;16.33;;;;;29.41;29.78;101194.19;5016353;28;45550;-43
2023/07/02 09:24:26;;;;;;;;;21.67;17.33;;;;;28.48;30.93;101189.88;5015550;28;45623;-43
2023/07/02 09:26:54;;;;;;;;;23.00;19.00;;;;;27.64;32.04;101187.09;5016390;28;46194;-42
2023/07/02 09:29:33;;;;;;;;;25.67;22.33;;;;;26.91;33.10;101190.81;5017972;28;45447;-43
2023/07/02 09:32:04;;;;;;;;;19.00;16.67;;;;;26.42;33.78;101185.41;5028207;28;45465;-43
2023/07/02 09:34:31;;;;;;;;;18.00;16.67;;;;;26.16;34.39;101191.88;5018899;28;46964;-41
2023/07/02 09:36:57;;;;;;;;;19.00;16.33;;;;;26.14;34.34;101188.50;5011809;28;45565;-41
2023/07/02 09:39:33;;;;;;;;;19.33;17.67;;;;;26.18;35.02;101186.25;5014405;28;46060;-41
2023/07/02 09:42:00;;;;;;;;;22.33;21.00;;;;;26.23;35.08;101192.91;5011589;28;45466;-41
2023/07/02 09:44:30;;;;;;;;;20.33;19.33;;;;;27.31;34.94;101184.50;5018767;28;45347;-41
2023/07/02 09:47:03;;;;;;;;;20.00;17.00;;;;;28.66;33.01;101194.19;5018749;28;46070;-43
2023/07/02 09:49:33;;;;;;;;;25.67;18.00;;;;;28.64;32.34;101193.50;5031950;28;45497;-43
2023/07/02 09:52:07;;;;;;;;;18.67;16.67;;;;;29.35;32.05;101188.44;5019174;28;45379;-42
2023/07/02 09:54:33;;;;;;;;;18.33;16.33;;;;;32.16;30.54;101178.50;5019030;28;45461;-41
2023/07/02 09:56:58;;;;;;;;;22.33;18.00;;;;;35.06;28.53;101186.97;5019011;28;45351;-43
2023/07/02 09:59:24;;;;;;;;;18.00;16.67;;;;;35.67;26.04;101184.28;5018763;28;45415;-42
2023/07/02 10:01:50;;;;;;;;;16.33;15.00;;;;;34.70;25.52;101191.38;5016594;28;45769;-42
2023/07/02 10:04:18;;;;;;;;;14.00;14.00;;;;;33.43;27.15;101187.63;5020251;28;45633;-42
2023/07/02 10:06:54;;;;;;;;;16.33;16.33;;;;;31.99;26.97;101191.81;5017690;28;45427;-42
2023/07/02 10:09:21;;;;;;;;;18.00;18.00;;;;;30.94;27.32;101192.03;5009011;28;45436;-42
2023/07/02 10:11:46;;;;;;;;;18.33;17.00;;;;;29.98;28.45;101195.28;5008907;28;45316;-42
2023/07/02 10:14:12;;;;;;;;;20.33;17.00;;;;;29.19;29.66;101194.94;5018707;28;45689;-43
2023/07/02 10:16:54;;;;;;;;;19.00;16.00;;;;;28.43;30.82;101192.31;5018777;28;45697;-43
2023/07/02 10:19:20;;;;;;;;;20.00;16.00;;;;;27.82;31.15;101201.34;5016647;28;45510;-41
2023/07/02 10:21:46;;;;;;;;;18.00;15.00;;;;;27.35;31.70;101189.44;5016034;28;45383;-42
2023/07/02 10:24:16;;;;;;;;;21.33;16.33;;;;;27.00;32.24;101188.03;5023401;28;45674;-41
2023/07/02 10:26:59;;;;;;;;;19.67;15.67;;;;;26.71;32.54;101192.19;5015883;28;45320;-42
2023/07/02 10:29:26;;;;;;;;;15.00;14.67;;;;;26.81;32.54;101189.31;5025343;28;45396;-42
2023/07/02 10:31:53;;;;;;;;;22.67;20.00;;;;;28.21;32.24;101181.25;5017873;28;46212;-41
2023/07/02 10:34:48;;;;;;;;;19.67;17.00;;;;;29.78;29.66;101186.81;5022939;28;45463;-41
2023/07/02 10:37:13;;;;;;;;;18.67;16.33;;;;;29.95;29.34;101185.53;5008726;28;75561;-42
2023/07/02 10:39:39;;;;;;;;;16.00;15.00;;;;;29.69;29.96;101169.66;5016960;28;71202;-41
2023/07/02 10:42:09;;;;;;;;;20.33;18.00;;;;;29.18;29.33;101175.97;5018709;28;45278;-41
2023/07/02 10:44:35;;;;;;;;;16.00;16.00;;;;;28.65;30.06;101168.69;5018748;28;45288;-43
2023/07/02 10:47:00;;;;;;;;;23.00;18.00;;;;;28.24;30.40;101177.28;5018635;28;46070;-43
2023/07/02 10:49:32;;;;;;;;;23.67;19.67;;;;;27.96;30.63;101166.03;5016176;28;45343;-41
2023/07/02 10:52:02;;;;;;;;;19.67;17.33;;;;;28.70;30.75;101165.41;5018723;28;45379;-42
2023/07/02 10:54:40;;;;;;;;;14.00;13.00;;;;;30.90;29.81;101163.28;5016375;28;45423;-42
2023/07/02 10:57:07;;;;;;;;;18.67;17.33;;;;;32.36;27.23;101166.69;5032815;28;47156;-42
2023/07/02 10:59:32;;;;;;;;;20.33;18.00;;;;;33.03;24.05;101161.06;5017661;28;45487;-43
2023/07/02 11:02:01;;;;;;;;;15.00;14.00;;;;;33.28;25.31;101163.97;5017432;28;61995;-44
2023/07/02 11:04:27;;;;;;;;;21.67;19.67;;;;;33.28;25.31;101169.47;5017721;28;45392;-42
2023/07/02 11:06:52;;;;;;;;;20.00;17.00;;;;;33.52;24.84;101163.38;5016961;28;45421;-42
2023/07/02 11:09:22;;;;;;;;;17.00;15.33;;;;;33.41;25.66;101157.50;5015503;28;67473;-42
2023/07/02 11:11:58;;;;;;;;;23.00;18.67;;;;;32.58;25.17;101164.53;5018042;28;45344;-42
2023/07/02 11:14:34;;;;;;;;;18.67;16.67;;;;;31.56;26.07;101152.78;5016564;28;45439;-43
2023/07/02 11:17:05;;;;;;;;;15.67;14.00;;;;;30.83;26.89;101167.88;5018069;28;46790;-42
2023/07/02 11:19:34;;;;;;;;;19.33;16.67;;;;;30.32;26.90;101158.84;5017246;28;45434;-43
2023/07/02 11:22:00;;;;;;;;;22.00;18.67;;;;;29.81;27.34;101172.72;5017105;28;45322;-42
2023/07/02 11:24:32;;;;;;;;;19.67;18.67;;;;;29.73;27.66;101157.25;5017718;28;45450;-42
2023/07/02 11:26:58;;;;;;;;;18.33;15.33;;;;;30.17;27.66;101164.44;5020219;28;45664;-41
2023/07/02 11:29:23;;;;;;;;;16.00;15.00;;;;;30.80;26.40;101162.81;5017435;28;45396;-43
2023/07/02 11:31:49;;;;;;;;;19.00;18.33;;;;;31.29;25.92;101158.19;5017914;28;45363;-41
2023/07/02 11:34:20;;;;;;;;;17.00;13.67;;;;;31.34;26.15;101152.94;5017167;28;45351;-43
2023/07/02 11:36:46;;;;;;;;;13.00;12.67;;;;;30.91;25.34;101153.16;5018932;28;46030;-42
2023/07/02 11:39:12;;;;;;;;;19.67;14.33;;;;;30.57;26.03;101152.09;5020201;28;45381;-41
2023/07/02 11:41:42;;;;;;;;;18.67;16.33;;;;;30.47;26.53;101157.97;5020447;28;45332;-41
2023/07/02 11:44:08;;;;;;;;;15.67;13.67;;;;;30.71;25.95;101155.78;5019853;28;45367;-41
2023/07/02 11:46:33;;;;;;;;;18.33;13.33;;;;;31.16;26.16;101150.78;5019924;28;66961;-43
2023/07/02 11:49:04;;;;;;;;;17.33;14.67;;;;;31.38;25.42;101142.38;5021047;28;45784;-41
2023/07/02 11:51:32;;;;;;;;;16.00;16.00;;;;;31.56;24.64;101137.13;5020969;28;45436;-43
2023/07/02 11:53:57;;;;;;;;;16.67;15.67;;;;;31.66;24.92;101140.38;5020253;28;45484;-42
2023/07/02 11:56:23;;;;;;;;;15.67;14.33;;;;;31.89;24.24;101128.16;5019721;28;75570;-43
2023/07/02 11:58:49;;;;;;;;;15.33;13.33;;;;;32.11;24.17;101142.53;5020932;28;49081;-43
2023/07/02 12:01:14;;;;;;;;;16.00;12.00;;;;;31.87;23.93;101133.00;5021593;28;61624;-42
2023/07/02 12:03:39;;;;;;;;;22.67;15.00;;;;;31.44;24.42;101133.31;5020035;28;59696;-46
2023/07/02 12:06:05;;;;;;;;;15.33;14.33;;;;;31.09;25.04;101147.97;5020065;28;74674;-43
2023/07/02 12:08:30;;;;;;;;;19.00;14.00;;;;;30.94;24.38;101139.03;5020609;28;45406;-44
2023/07/02 12:10:55;;;;;;;;;17.00;15.67;;;;;30.73;24.11;101131.72;5020208;28;68275;-42
2023/07/02 12:13:21;;;;;;;;;15.67;15.67;;;;;30.61;25.54;101140.53;5020618;28;45416;-43
2023/07/02 12:15:47;;;;;;;;;16.00;14.00;;;;;30.67;25.25;101147.09;5018408;28;73405;-43
2023/07/02 12:18:12;;;;;;;;;18.33;14.33;;;;;30.84;24.84;101145.72;5019875;28;45457;-42